sensor_id;sensor_type;location;lat;lon;timestamp;P1;durP1;ratioP1;P2;durP2;ratioP2
48873;SDS011;35220;46.204;5.220;2022-08-19T00:02:13;8.18;;;5.72;;
48873;SDS011;35220;46.204;5.220;2022-08-19T00:07:13;8.27;;;5.40;;
48873;SDS011;35220;46.204;5.220;2022-08-19T00:12:14;9.60;;;5.18;;
48873;SDS011;35220;46.204;5.220;2022-08-19T00:17:15;11.07;;;6.28;;
48873;SDS011;35220;46.204;5.220;2022-08-19T00:22:15;7.70;;;5.60;;
48873;SDS011;35220;46.204;5.220;2022-08-19T00:27:17;8.07;;;5.85;;
48873;SDS011;35220;46.204;5.220;2022-08-19T00:32:18;7.70;;;5.70;;
48873;SDS011;35220;46.204;5.220;2022-08-19T00:37:21;9.13;;;5.30;;
48873;SDS011;35220;46.204;5.220;2022-08-19T00:42:23;7.82;;;5.18;;
48873;SDS011;35220;46.204;5.220;2022-08-19T00:47:23;7.60;;;5.40;;
48873;SDS011;35220;46.204;5.220;2022-08-19T00:52:25;6.55;;;4.55;;
48873;SDS011;35220;46.204;5.220;2022-08-19T00:57:32;6.15;;;4.63;;
48873;SDS011;35220;46.204;5.220;2022-08-19T01:02:37;7.50;;;5.32;;
48873;SDS011;35220;46.204;5.220;2022-08-19T01:07:39;7.57;;;5.22;;
48873;SDS011;35220;46.204;5.220;2022-08-19T01:12:40;9.52;;;5.50;;
48873;SDS011;35220;46.204;5.220;2022-08-19T01:17:41;7.85;;;5.72;;
48873;SDS011;35220;46.204;5.220;2022-08-19T01:22:47;7.50;;;5.30;;
48873;SDS011;35220;46.204;5.220;2022-08-19T01:27:51;8.27;;;4.95;;
48873;SDS011;35220;46.204;5.220;2022-08-19T01:32:52;10.85;;;5.20;;
48873;SDS011;35220;46.204;5.220;2022-08-19T01:37:58;7.82;;;5.32;;
48873;SDS011;35220;46.204;5.220;2022-08-19T01:43:00;8.82;;;5.20;;
48873;SDS011;35220;46.204;5.220;2022-08-19T01:48:03;7.85;;;5.18;;
48873;SDS011;35220;46.204;5.220;2022-08-19T01:53:04;8.60;;;4.72;;
48873;SDS011;35220;46.204;5.220;2022-08-19T01:58:08;7.57;;;4.82;;
48873;SDS011;35220;46.204;5.220;2022-08-19T02:03:12;8.77;;;5.05;;
48873;SDS011;35220;46.204;5.220;2022-08-19T02:08:13;7.45;;;5.20;;
48873;SDS011;35220;46.204;5.220;2022-08-19T02:13:13;6.40;;;4.60;;
48873;SDS011;35220;46.204;5.220;2022-08-19T02:18:14;9.15;;;5.20;;
48873;SDS011;35220;46.204;5.220;2022-08-19T02:23:15;7.00;;;4.88;;
48873;SDS011;35220;46.204;5.220;2022-08-19T02:28:16;8.80;;;4.65;;
48873;SDS011;35220;46.204;5.220;2022-08-19T02:33:17;6.83;;;4.50;;
48873;SDS011;35220;46.204;5.220;2022-08-19T02:38:17;6.57;;;4.67;;
48873;SDS011;35220;46.204;5.220;2022-08-19T02:43:27;7.15;;;4.60;;
48873;SDS011;35220;46.204;5.220;2022-08-19T02:48:29;6.80;;;4.30;;
48873;SDS011;35220;46.204;5.220;2022-08-19T02:53:32;6.53;;;4.80;;
48873;SDS011;35220;46.204;5.220;2022-08-19T02:58:33;7.90;;;5.00;;
48873;SDS011;35220;46.204;5.220;2022-08-19T03:03:33;7.80;;;4.65;;
48873;SDS011;35220;46.204;5.220;2022-08-19T03:08:34;6.93;;;4.90;;
48873;SDS011;35220;46.204;5.220;2022-08-19T03:13:34;7.85;;;4.50;;
48873;SDS011;35220;46.204;5.220;2022-08-19T03:18:35;7.18;;;4.78;;
48873;SDS011;35220;46.204;5.220;2022-08-19T03:23:36;9.40;;;4.65;;
48873;SDS011;35220;46.204;5.220;2022-08-19T03:28:36;8.83;;;4.83;;
48873;SDS011;35220;46.204;5.220;2022-08-19T03:33:37;8.43;;;5.82;;
48873;SDS011;35220;46.204;5.220;2022-08-19T03:38:39;7.63;;;4.65;;
48873;SDS011;35220;46.204;5.220;2022-08-19T03:43:42;6.38;;;4.80;;
48873;SDS011;35220;46.204;5.220;2022-08-19T03:48:43;6.15;;;4.38;;
48873;SDS011;35220;46.204;5.220;2022-08-19T03:53:44;10.50;;;5.55;;
48873;SDS011;35220;46.204;5.220;2022-08-19T03:58:44;7.90;;;5.32;;
48873;SDS011;35220;46.204;5.220;2022-08-19T04:03:46;7.65;;;5.43;;
48873;SDS011;35220;46.204;5.220;2022-08-19T04:08:47;7.60;;;5.20;;
48873;SDS011;35220;46.204;5.220;2022-08-19T04:13:50;9.10;;;5.70;;
48873;SDS011;35220;46.204;5.220;2022-08-19T04:18:52;7.93;;;5.80;;
48873;SDS011;35220;46.204;5.220;2022-08-19T04:23:53;8.30;;;4.93;;
48873;SDS011;35220;46.204;5.220;2022-08-19T04:28:54;7.20;;;5.20;;
48873;SDS011;35220;46.204;5.220;2022-08-19T04:33:56;7.45;;;5.40;;
48873;SDS011;35220;46.204;5.220;2022-08-19T04:38:59;7.25;;;5.25;;
48873;SDS011;35220;46.204;5.220;2022-08-19T04:44:01;10.05;;;5.90;;
48873;SDS011;35220;46.204;5.220;2022-08-19T04:49:03;8.60;;;5.22;;
48873;SDS011;35220;46.204;5.220;2022-08-19T04:54:05;9.95;;;5.85;;
48873;SDS011;35220;46.204;5.220;2022-08-19T04:59:05;10.40;;;5.87;;
48873;SDS011;35220;46.204;5.220;2022-08-19T05:04:06;10.38;;;5.88;;
48873;SDS011;35220;46.204;5.220;2022-08-19T05:09:06;8.93;;;5.68;;
48873;SDS011;35220;46.204;5.220;2022-08-19T05:14:07;8.97;;;5.77;;
48873;SDS011;35220;46.204;5.220;2022-08-19T05:19:08;8.52;;;5.57;;
48873;SDS011;35220;46.204;5.220;2022-08-19T05:24:28;8.93;;;5.95;;
48873;SDS011;35220;46.204;5.220;2022-08-19T05:29:29;7.93;;;5.82;;
48873;SDS011;35220;46.204;5.220;2022-08-19T05:34:31;7.78;;;5.63;;
48873;SDS011;35220;46.204;5.220;2022-08-19T05:39:33;11.80;;;6.15;;
48873;SDS011;35220;46.204;5.220;2022-08-19T05:44:37;7.50;;;5.25;;
48873;SDS011;35220;46.204;5.220;2022-08-19T05:49:40;8.80;;;5.18;;
48873;SDS011;35220;46.204;5.220;2022-08-19T05:54:42;9.20;;;5.75;;
48873;SDS011;35220;46.204;5.220;2022-08-19T05:59:42;8.90;;;5.25;;
48873;SDS011;35220;46.204;5.220;2022-08-19T06:04:45;10.18;;;5.60;;
48873;SDS011;35220;46.204;5.220;2022-08-19T06:09:46;7.95;;;5.80;;
48873;SDS011;35220;46.204;5.220;2022-08-19T06:14:46;11.03;;;6.20;;
48873;SDS011;35220;46.204;5.220;2022-08-19T06:19:46;7.60;;;6.03;;
48873;SDS011;35220;46.204;5.220;2022-08-19T06:24:47;8.33;;;5.77;;
48873;SDS011;35220;46.204;5.220;2022-08-19T06:29:47;8.93;;;5.88;;
48873;SDS011;35220;46.204;5.220;2022-08-19T06:34:48;9.10;;;6.78;;
48873;SDS011;35220;46.204;5.220;2022-08-19T06:39:49;9.10;;;5.85;;
48873;SDS011;35220;46.204;5.220;2022-08-19T06:44:50;8.82;;;5.72;;
48873;SDS011;35220;46.204;5.220;2022-08-19T06:49:53;9.83;;;5.80;;
48873;SDS011;35220;46.204;5.220;2022-08-19T06:54:59;7.15;;;5.38;;
48873;SDS011;35220;46.204;5.220;2022-08-19T07:00:01;8.70;;;5.70;;
48873;SDS011;35220;46.204;5.220;2022-08-19T07:05:01;9.90;;;5.35;;
48873;SDS011;35220;46.204;5.220;2022-08-19T07:10:03;8.57;;;5.10;;
48873;SDS011;35220;46.204;5.220;2022-08-19T07:15:05;10.60;;;5.65;;
48873;SDS011;35220;46.204;5.220;2022-08-19T07:20:09;10.20;;;5.65;;
48873;SDS011;35220;46.204;5.220;2022-08-19T07:25:10;7.80;;;5.32;;
48873;SDS011;35220;46.204;5.220;2022-08-19T07:30:13;8.38;;;5.45;;
48873;SDS011;35220;46.204;5.220;2022-08-19T07:35:13;9.43;;;5.68;;
48873;SDS011;35220;46.204;5.220;2022-08-19T07:40:14;9.18;;;5.63;;
48873;SDS011;35220;46.204;5.220;2022-08-19T07:45:15;11.40;;;5.38;;
48873;SDS011;35220;46.204;5.220;2022-08-19T07:50:17;9.10;;;5.78;;
48873;SDS011;35220;46.204;5.220;2022-08-19T07:55:20;10.15;;;5.30;;
48873;SDS011;35220;46.204;5.220;2022-08-19T08:00:23;10.57;;;6.32;;
48873;SDS011;35220;46.204;5.220;2022-08-19T08:05:24;10.45;;;6.32;;
48873;SDS011;35220;46.204;5.220;2022-08-19T08:10:43;10.80;;;6.22;;
48873;SDS011;35220;46.204;5.220;2022-08-19T08:15:43;12.43;;;6.57;;
48873;SDS011;35220;46.204;5.220;2022-08-19T08:20:44;9.27;;;6.30;;
48873;SDS011;35220;46.204;5.220;2022-08-19T08:25:45;11.10;;;7.23;;
48873;SDS011;35220;46.204;5.220;2022-08-19T08:30:46;13.10;;;7.63;;
48873;SDS011;35220;46.204;5.220;2022-08-19T08:35:48;11.95;;;7.60;;
48873;SDS011;35220;46.204;5.220;2022-08-19T08:40:50;11.68;;;7.18;;
48873;SDS011;35220;46.204;5.220;2022-08-19T08:46:06;11.35;;;7.95;;
48873;SDS011;35220;46.204;5.220;2022-08-19T08:51:19;12.05;;;8.57;;
48873;SDS011;35220;46.204;5.220;2022-08-19T08:56:23;15.25;;;9.82;;
48873;SDS011;35220;46.204;5.220;2022-08-19T09:01:23;13.60;;;9.63;;
48873;SDS011;35220;46.204;5.220;2022-08-19T09:11:31;15.33;;;9.00;;
48873;SDS011;35220;46.204;5.220;2022-08-19T09:16:47;12.52;;;8.13;;
48873;SDS011;35220;46.204;5.220;2022-08-19T09:21:49;15.63;;;9.18;;
48873;SDS011;35220;46.204;5.220;2022-08-19T09:26:50;14.20;;;8.93;;
48873;SDS011;35220;46.204;5.220;2022-08-19T09:31:50;13.55;;;9.65;;
48873;SDS011;35220;46.204;5.220;2022-08-19T09:36:51;13.40;;;9.70;;
48873;SDS011;35220;46.204;5.220;2022-08-19T09:41:53;16.08;;;10.05;;
48873;SDS011;35220;46.204;5.220;2022-08-19T09:46:53;18.20;;;11.47;;
48873;SDS011;35220;46.204;5.220;2022-08-19T09:51:53;17.53;;;10.27;;
48873;SDS011;35220;46.204;5.220;2022-08-19T09:56:57;17.75;;;11.07;;
48873;SDS011;35220;46.204;5.220;2022-08-19T10:02:00;19.08;;;11.43;;
48873;SDS011;35220;46.204;5.220;2022-08-19T10:07:01;19.23;;;12.88;;
48873;SDS011;35220;46.204;5.220;2022-08-19T10:12:02;24.67;;;15.03;;
48873;SDS011;35220;46.204;5.220;2022-08-19T10:17:04;22.17;;;14.20;;
48873;SDS011;35220;46.204;5.220;2022-08-19T10:22:05;24.30;;;16.17;;
48873;SDS011;35220;46.204;5.220;2022-08-19T10:27:06;24.05;;;15.82;;
48873;SDS011;35220;46.204;5.220;2022-08-19T10:32:07;22.07;;;15.20;;
48873;SDS011;35220;46.204;5.220;2022-08-19T10:37:08;22.75;;;15.07;;
48873;SDS011;35220;46.204;5.220;2022-08-19T10:42:09;21.15;;;13.43;;
48873;SDS011;35220;46.204;5.220;2022-08-19T10:47:13;18.45;;;11.68;;
48873;SDS011;35220;46.204;5.220;2022-08-19T10:52:14;16.83;;;11.02;;
48873;SDS011;35220;46.204;5.220;2022-08-19T10:57:33;18.35;;;10.93;;
48873;SDS011;35220;46.204;5.220;2022-08-19T11:02:34;15.47;;;10.60;;
48873;SDS011;35220;46.204;5.220;2022-08-19T11:07:34;16.65;;;9.77;;
48873;SDS011;35220;46.204;5.220;2022-08-19T11:12:36;14.27;;;9.80;;
48873;SDS011;35220;46.204;5.220;2022-08-19T11:17:39;14.48;;;9.40;;
48873;SDS011;35220;46.204;5.220;2022-08-19T11:22:43;13.40;;;9.05;;
48873;SDS011;35220;46.204;5.220;2022-08-19T11:27:43;15.20;;;9.60;;
48873;SDS011;35220;46.204;5.220;2022-08-19T11:32:44;12.82;;;9.05;;
48873;SDS011;35220;46.204;5.220;2022-08-19T11:37:45;12.55;;;8.98;;
48873;SDS011;35220;46.204;5.220;2022-08-19T11:42:45;14.10;;;8.75;;
48873;SDS011;35220;46.204;5.220;2022-08-19T11:47:55;11.40;;;7.60;;
48873;SDS011;35220;46.204;5.220;2022-08-19T11:52:56;10.02;;;8.20;;
48873;SDS011;35220;46.204;5.220;2022-08-19T11:57:57;14.07;;;9.38;;
48873;SDS011;35220;46.204;5.220;2022-08-19T12:02:57;10.82;;;8.23;;
48873;SDS011;35220;46.204;5.220;2022-08-19T12:07:58;11.95;;;8.30;;
48873;SDS011;35220;46.204;5.220;2022-08-19T12:12:58;11.80;;;8.40;;
48873;SDS011;35220;46.204;5.220;2022-08-19T12:17:59;12.65;;;8.23;;
48873;SDS011;35220;46.204;5.220;2022-08-19T12:22:59;10.40;;;8.35;;
48873;SDS011;35220;46.204;5.220;2022-08-19T12:28:00;12.87;;;8.83;;
48873;SDS011;35220;46.204;5.220;2022-08-19T12:33:00;14.35;;;8.82;;
48873;SDS011;35220;46.204;5.220;2022-08-19T12:38:01;11.98;;;8.65;;
48873;SDS011;35220;46.204;5.220;2022-08-19T12:43:02;11.77;;;8.27;;
48873;SDS011;35220;46.204;5.220;2022-08-19T12:48:04;12.02;;;8.45;;
48873;SDS011;35220;46.204;5.220;2022-08-19T12:53:04;12.10;;;7.93;;
48873;SDS011;35220;46.204;5.220;2022-08-19T12:58:05;12.07;;;7.72;;
48873;SDS011;35220;46.204;5.220;2022-08-19T13:03:05;10.75;;;8.07;;
48873;SDS011;35220;46.204;5.220;2022-08-19T13:08:06;10.57;;;7.73;;
48873;SDS011;35220;46.204;5.220;2022-08-19T13:13:08;10.25;;;7.90;;
48873;SDS011;35220;46.204;5.220;2022-08-19T13:18:09;8.90;;;6.95;;
48873;SDS011;35220;46.204;5.220;2022-08-19T13:23:11;10.10;;;6.50;;
48873;SDS011;35220;46.204;5.220;2022-08-19T13:28:11;10.23;;;6.45;;
48873;SDS011;35220;46.204;5.220;2022-08-19T13:33:11;7.40;;;6.17;;
48873;SDS011;35220;46.204;5.220;2022-08-19T13:38:16;7.07;;;5.60;;
48873;SDS011;35220;46.204;5.220;2022-08-19T13:43:21;7.65;;;5.45;;
48873;SDS011;35220;46.204;5.220;2022-08-19T13:48:22;7.70;;;5.28;;
48873;SDS011;35220;46.204;5.220;2022-08-19T13:53:26;5.82;;;5.18;;
48873;SDS011;35220;46.204;5.220;2022-08-19T13:58:26;8.27;;;5.13;;
48873;SDS011;35220;46.204;5.220;2022-08-19T14:03:26;8.53;;;5.40;;
48873;SDS011;35220;46.204;5.220;2022-08-19T14:08:27;8.52;;;5.35;;
48873;SDS011;35220;46.204;5.220;2022-08-19T14:13:29;7.15;;;6.45;;
48873;SDS011;35220;46.204;5.220;2022-08-19T14:18:29;7.10;;;6.40;;
48873;SDS011;35220;46.204;5.220;2022-08-19T14:23:30;8.40;;;6.18;;
48873;SDS011;35220;46.204;5.220;2022-08-19T14:28:31;7.57;;;6.10;;
48873;SDS011;35220;46.204;5.220;2022-08-19T14:33:32;7.85;;;5.85;;
48873;SDS011;35220;46.204;5.220;2022-08-19T14:38:32;5.78;;;5.05;;
48873;SDS011;35220;46.204;5.220;2022-08-19T14:43:33;6.07;;;5.45;;
48873;SDS011;35220;46.204;5.220;2022-08-19T14:48:34;7.07;;;5.53;;
48873;SDS011;35220;46.204;5.220;2022-08-19T14:53:36;8.13;;;5.47;;
48873;SDS011;35220;46.204;5.220;2022-08-19T14:58:38;7.20;;;5.78;;
48873;SDS011;35220;46.204;5.220;2022-08-19T15:03:42;6.38;;;4.70;;
48873;SDS011;35220;46.204;5.220;2022-08-19T15:08:43;6.50;;;3.90;;
48873;SDS011;35220;46.204;5.220;2022-08-19T15:13:44;6.30;;;4.45;;
48873;SDS011;35220;46.204;5.220;2022-08-19T15:18:48;6.10;;;4.38;;
48873;SDS011;35220;46.204;5.220;2022-08-19T15:23:51;7.75;;;4.20;;
48873;SDS011;35220;46.204;5.220;2022-08-19T15:28:52;5.63;;;4.07;;
48873;SDS011;35220;46.204;5.220;2022-08-19T15:33:52;5.60;;;3.70;;
48873;SDS011;35220;46.204;5.220;2022-08-19T15:38:56;6.65;;;3.90;;
48873;SDS011;35220;46.204;5.220;2022-08-19T15:43:58;4.65;;;3.42;;
48873;SDS011;35220;46.204;5.220;2022-08-19T15:49:04;6.53;;;2.80;;
48873;SDS011;35220;46.204;5.220;2022-08-19T15:54:06;4.43;;;2.78;;
48873;SDS011;35220;46.204;5.220;2022-08-19T15:59:08;4.10;;;3.08;;
48873;SDS011;35220;46.204;5.220;2022-08-19T16:04:27;5.93;;;3.22;;
48873;SDS011;35220;46.204;5.220;2022-08-19T16:09:45;6.22;;;3.13;;
48873;SDS011;35220;46.204;5.220;2022-08-19T16:14:46;5.33;;;3.23;;
48873;SDS011;35220;46.204;5.220;2022-08-19T16:19:48;4.50;;;2.90;;
48873;SDS011;35220;46.204;5.220;2022-08-19T16:24:48;4.55;;;2.70;;
48873;SDS011;35220;46.204;5.220;2022-08-19T16:29:49;4.03;;;3.30;;
48873;SDS011;35220;46.204;5.220;2022-08-19T16:34:49;3.57;;;2.67;;
48873;SDS011;35220;46.204;5.220;2022-08-19T16:39:50;3.20;;;2.10;;
48873;SDS011;35220;46.204;5.220;2022-08-19T16:44:50;3.17;;;2.50;;
48873;SDS011;35220;46.204;5.220;2022-08-19T16:49:51;3.88;;;2.67;;
48873;SDS011;35220;46.204;5.220;2022-08-19T16:54:51;3.00;;;2.70;;
48873;SDS011;35220;46.204;5.220;2022-08-19T16:59:52;2.97;;;2.20;;
48873;SDS011;35220;46.204;5.220;2022-08-19T17:04:53;2.17;;;1.80;;
48873;SDS011;35220;46.204;5.220;2022-08-19T17:09:55;3.33;;;1.90;;
48873;SDS011;35220;46.204;5.220;2022-08-19T17:14:56;1.95;;;1.70;;
48873;SDS011;35220;46.204;5.220;2022-08-19T17:19:57;2.22;;;1.83;;
48873;SDS011;35220;46.204;5.220;2022-08-19T17:24:59;2.53;;;2.00;;
48873;SDS011;35220;46.204;5.220;2022-08-19T17:30:00;3.08;;;1.77;;
48873;SDS011;35220;46.204;5.220;2022-08-19T17:35:04;1.90;;;1.55;;
48873;SDS011;35220;46.204;5.220;2022-08-19T17:40:07;2.53;;;1.98;;
48873;SDS011;35220;46.204;5.220;2022-08-19T17:45:08;2.57;;;1.90;;
48873;SDS011;35220;46.204;5.220;2022-08-19T17:50:11;3.08;;;2.05;;
48873;SDS011;35220;46.204;5.220;2022-08-19T17:55:12;2.22;;;1.67;;
48873;SDS011;35220;46.204;5.220;2022-08-19T18:00:13;8.35;;;2.10;;
48873;SDS011;35220;46.204;5.220;2022-08-19T18:05:14;2.30;;;1.73;;
48873;SDS011;35220;46.204;5.220;2022-08-19T18:10:14;3.17;;;1.83;;
48873;SDS011;35220;46.204;5.220;2022-08-19T18:15:15;3.38;;;2.78;;
48873;SDS011;35220;46.204;5.220;2022-08-19T18:20:16;2.92;;;2.33;;
48873;SDS011;35220;46.204;5.220;2022-08-19T18:25:22;2.28;;;1.92;;
48873;SDS011;35220;46.204;5.220;2022-08-19T18:30:25;6.03;;;2.20;;
48873;SDS011;35220;46.204;5.220;2022-08-19T18:35:27;2.70;;;2.05;;
48873;SDS011;35220;46.204;5.220;2022-08-19T18:40:29;2.47;;;2.17;;
48873;SDS011;35220;46.204;5.220;2022-08-19T18:45:49;2.53;;;1.80;;
48873;SDS011;35220;46.204;5.220;2022-08-19T18:51:09;2.50;;;1.95;;
48873;SDS011;35220;46.204;5.220;2022-08-19T18:56:11;3.67;;;1.95;;
48873;SDS011;35220;46.204;5.220;2022-08-19T19:01:15;2.80;;;1.67;;
48873;SDS011;35220;46.204;5.220;2022-08-19T19:06:19;6.43;;;1.90;;
48873;SDS011;35220;46.204;5.220;2022-08-19T19:11:22;3.60;;;1.63;;
48873;SDS011;35220;46.204;5.220;2022-08-19T19:16:25;2.72;;;1.98;;
48873;SDS011;35220;46.204;5.220;2022-08-19T19:21:26;4.30;;;2.50;;
48873;SDS011;35220;46.204;5.220;2022-08-19T19:26:26;4.35;;;2.50;;
48873;SDS011;35220;46.204;5.220;2022-08-19T19:31:27;3.45;;;1.90;;
48873;SDS011;35220;46.204;5.220;2022-08-19T19:36:27;5.32;;;3.22;;
48873;SDS011;35220;46.204;5.220;2022-08-19T19:41:28;4.97;;;2.43;;
48873;SDS011;35220;46.204;5.220;2022-08-19T19:46:29;3.80;;;2.22;;
48873;SDS011;35220;46.204;5.220;2022-08-19T19:51:31;2.30;;;1.77;;
48873;SDS011;35220;46.204;5.220;2022-08-19T19:56:32;2.53;;;1.60;;
48873;SDS011;35220;46.204;5.220;2022-08-19T20:01:33;2.80;;;1.60;;
48873;SDS011;35220;46.204;5.220;2022-08-19T20:06:34;3.38;;;1.48;;
48873;SDS011;35220;46.204;5.220;2022-08-19T20:11:45;3.63;;;1.70;;
48873;SDS011;35220;46.204;5.220;2022-08-19T20:16:48;2.42;;;1.52;;
48873;SDS011;35220;46.204;5.220;2022-08-19T20:21:49;3.05;;;1.50;;
48873;SDS011;35220;46.204;5.220;2022-08-19T20:26:50;1.90;;;1.65;;
48873;SDS011;35220;46.204;5.220;2022-08-19T20:31:51;2.30;;;1.60;;
48873;SDS011;35220;46.204;5.220;2022-08-19T20:36:52;2.38;;;1.65;;
48873;SDS011;35220;46.204;5.220;2022-08-19T20:41:52;2.27;;;1.63;;
48873;SDS011;35220;46.204;5.220;2022-08-19T20:46:55;2.53;;;1.77;;
48873;SDS011;35220;46.204;5.220;2022-08-19T20:51:55;2.80;;;1.63;;
48873;SDS011;35220;46.204;5.220;2022-08-19T20:56:56;5.28;;;1.70;;
48873;SDS011;35220;46.204;5.220;2022-08-19T21:01:57;2.80;;;1.63;;
48873;SDS011;35220;46.204;5.220;2022-08-19T21:06:58;3.55;;;1.80;;
48873;SDS011;35220;46.204;5.220;2022-08-19T21:12:01;5.25;;;1.90;;
48873;SDS011;35220;46.204;5.220;2022-08-19T21:17:03;3.65;;;1.88;;
48873;SDS011;35220;46.204;5.220;2022-08-19T21:22:03;3.27;;;1.87;;
48873;SDS011;35220;46.204;5.220;2022-08-19T21:27:04;2.97;;;1.70;;
48873;SDS011;35220;46.204;5.220;2022-08-19T21:32:05;2.83;;;1.80;;
48873;SDS011;35220;46.204;5.220;2022-08-19T21:37:06;3.08;;;1.88;;
48873;SDS011;35220;46.204;5.220;2022-08-19T21:42:07;3.42;;;1.88;;
48873;SDS011;35220;46.204;5.220;2022-08-19T21:47:07;2.88;;;1.98;;
48873;SDS011;35220;46.204;5.220;2022-08-19T21:52:07;3.10;;;1.53;;
48873;SDS011;35220;46.204;5.220;2022-08-19T21:57:08;3.17;;;1.77;;
48873;SDS011;35220;46.204;5.220;2022-08-19T22:02:08;2.13;;;1.87;;
48873;SDS011;35220;46.204;5.220;2022-08-19T22:07:09;1.98;;;1.63;;
48873;SDS011;35220;46.204;5.220;2022-08-19T22:12:29;2.55;;;1.85;;
48873;SDS011;35220;46.204;5.220;2022-08-19T22:17:31;3.30;;;2.20;;
48873;SDS011;35220;46.204;5.220;2022-08-19T22:22:32;3.28;;;1.83;;
48873;SDS011;35220;46.204;5.220;2022-08-19T22:27:33;2.70;;;1.90;;
48873;SDS011;35220;46.204;5.220;2022-08-19T22:32:34;4.75;;;2.10;;
48873;SDS011;35220;46.204;5.220;2022-08-19T22:37:35;4.47;;;2.08;;
48873;SDS011;35220;46.204;5.220;2022-08-19T22:42:35;5.30;;;1.92;;
48873;SDS011;35220;46.204;5.220;2022-08-19T22:47:37;2.90;;;1.70;;
48873;SDS011;35220;46.204;5.220;2022-08-19T22:52:38;2.35;;;1.65;;
48873;SDS011;35220;46.204;5.220;2022-08-19T22:57:41;6.05;;;2.35;;
48873;SDS011;35220;46.204;5.220;2022-08-19T23:02:42;5.65;;;2.25;;
48873;SDS011;35220;46.204;5.220;2022-08-19T23:07:42;3.28;;;1.60;;
48873;SDS011;35220;46.204;5.220;2022-08-19T23:12:45;3.00;;;1.67;;
48873;SDS011;35220;46.204;5.220;2022-08-19T23:17:47;2.70;;;1.95;;
48873;SDS011;35220;46.204;5.220;2022-08-19T23:22:47;2.30;;;1.80;;
48873;SDS011;35220;46.204;5.220;2022-08-19T23:27:49;2.40;;;1.83;;
48873;SDS011;35220;46.204;5.220;2022-08-19T23:33:22;1.50;;;1.40;;
48873;SDS011;35220;46.204;5.220;2022-08-19T23:38:34;3.45;;;1.60;;
48873;SDS011;35220;46.204;5.220;2022-08-19T23:43:35;3.17;;;1.70;;
48873;SDS011;35220;46.204;5.220;2022-08-19T23:48:38;2.58;;;1.95;;
48873;SDS011;35220;46.204;5.220;2022-08-19T23:53:39;4.40;;;1.90;;
48873;SDS011;35220;46.204;5.220;2022-08-19T23:58:40;2.75;;;1.98;;
